Time;durP1;ratioP1;P1;durP2;ratioP2;P2;SDS_P1;SDS_P2;PMS_P1;PMS_P2;Temp;Humidity;BMP_temperature;BMP_pressure;BME280_temperature;BME280_humidity;BME280_pressure;Samples;Min_cycle;Max_cycle;Signal;HPM_P1;HPM_P2
2024/02/23 00:01:13;;;;;;;;;0.00;0.00;;;;;-145.09;100.00;59365.97;5113143;28;27699;-82
2024/02/23 00:03:39;;;;;;;;;0.00;0.00;;;;;-145.09;100.00;59365.97;5113939;28;11378;-82
2024/02/23 00:06:04;;;;;;;;;0.00;0.00;;;;;-145.09;100.00;59365.97;5113977;28;8791;-82
2024/02/23 00:08:29;;;;;;;;;0.00;0.00;;;;;-145.09;100.00;59365.97;5115160;28;8903;-83
2024/02/23 00:10:55;;;;;;;;;3.00;3.00;;;;;-145.09;100.00;59365.97;5114231;28;29885;-83
2024/02/23 00:13:20;;;;;;;;;0.00;0.00;;;;;-145.09;100.00;59365.97;5129907;27;26718;-81
2024/02/23 00:15:45;;;;;;;;;0.00;0.00;;;;;-145.09;100.00;59365.97;5121335;27;35783;-83
2024/02/23 00:18:13;;;;;;;;;0.00;0.00;;;;;-145.09;100.00;59365.97;5133688;27;27483;-82
2024/02/23 00:20:38;;;;;;;;;0.00;0.00;;;;;-145.09;100.00;59365.97;5135429;27;8885;-82
2024/02/23 00:23:03;;;;;;;;;0.00;0.00;;;;;-145.09;100.00;59365.97;5135644;27;8800;-81
2024/02/23 00:25:29;;;;;;;;;0.00;0.00;;;;;-145.09;100.00;59365.97;5135634;27;8812;-81
2024/02/23 00:27:54;;;;;;;;;0.00;0.00;;;;;-145.09;100.00;59365.97;5133068;27;35168;-82
2024/02/23 00:30:19;;;;;;;;;0.00;0.00;;;;;-145.09;100.00;59365.97;5134253;27;35868;-82
2024/02/23 00:32:45;;;;;;;;;0.00;0.00;;;;;-145.09;100.00;59365.97;5133038;27;37126;-82
2024/02/23 00:35:10;;;;;;;;;0.00;0.00;;;;;-145.09;100.00;59365.97;5133038;27;35818;-82
2024/02/23 00:37:35;;;;;;;;;0.00;0.00;;;;;-145.09;100.00;59365.97;5115929;27;33510;-82
2024/02/23 00:40:04;;;;;;;;;0.00;0.00;;;;;-145.09;100.00;59365.97;5133783;27;13663;-83
2024/02/23 00:42:30;;;;;;;;;0.00;0.00;;;;;-145.09;100.00;59365.97;5133498;27;10995;-82
2024/02/23 00:44:56;;;;;;;;;0.00;0.00;;;;;-145.09;100.00;59365.97;5135273;27;8776;-82
2024/02/23 00:47:21;;;;;;;;;0.00;0.00;;;;;-145.09;100.00;59365.97;5134022;27;36243;-82
2024/02/23 00:49:46;;;;;;;;;0.00;0.00;;;;;-145.09;100.00;59365.97;5127315;27;33438;-81
2024/02/23 00:52:11;;;;;;;;;0.00;0.00;;;;;-145.09;100.00;59365.97;5113614;28;30478;-82
2024/02/23 00:54:37;;;;;;;;;0.00;0.00;;;;;-145.09;100.00;59365.97;5113195;28;11093;-82
2024/02/23 00:57:02;;;;;;;;;0.00;0.00;;;;;-145.09;100.00;59365.97;5112709;28;9977;-83
2024/02/23 00:59:28;;;;;;;;;0.00;0.00;;;;;-145.09;100.00;59365.97;5113255;27;38189;-82
2024/02/23 01:01:55;;;;;;;;;0.00;0.00;;;;;-145.09;100.00;59365.97;5112923;27;11449;-82
2024/02/23 01:04:20;;;;;;;;;0.00;0.00;;;;;-145.09;100.00;59365.97;5114128;28;8790;-82
2024/02/23 01:06:45;;;;;;;;;0.00;0.00;;;;;-145.09;100.00;59365.97;5114054;28;8791;-82
2024/02/23 01:09:11;;;;;;;;;3.00;0.00;;;;;-145.09;100.00;59365.97;5113125;28;8898;-83
2024/02/23 01:11:36;;;;;;;;;0.00;0.00;;;;;-145.09;100.00;59365.97;5094506;28;37146;-82
2024/02/23 01:14:01;;;;;;;;;0.00;0.00;;;;;-145.09;100.00;59365.97;5112413;28;19538;-83
2024/02/23 01:16:27;;;;;;;;;0.00;0.00;;;;;-145.09;100.00;59365.97;5112640;27;10883;-83
2024/02/23 01:18:52;;;;;;;;;0.00;0.00;;;;;-145.09;100.00;59365.97;5114124;27;8792;-83
2024/02/23 01:21:18;;;;;;;;;0.00;0.00;;;;;-145.09;100.00;59365.97;5111761;28;30547;-82
2024/02/23 01:23:43;;;;;;;;;0.00;0.00;;;;;-145.09;100.00;59365.97;5114354;27;11406;-82
2024/02/23 01:26:09;;;;;;;;;0.00;0.00;;;;;-145.09;100.00;59365.97;5112456;28;8820;-83
2024/02/23 01:28:34;;;;;;;;;0.00;0.00;;;;;-145.09;100.00;59365.97;5113420;28;16285;-82
2024/02/23 01:31:00;;;;;;;;;0.00;0.00;;;;;-145.09;100.00;59365.97;5111573;28;38138;-82
2024/02/23 01:33:26;;;;;;;;;0.00;0.00;;;;;-145.09;100.00;59365.97;5113842;27;11494;-81
2024/02/23 01:35:51;;;;;;;;;0.00;0.00;;;;;-145.09;100.00;59365.97;5113689;28;9552;-82
2024/02/23 01:38:20;;;;;;;;;0.00;0.00;;;;;-145.09;100.00;59365.97;5113142;27;25647;-82
2024/02/23 01:40:45;;;;;;;;;0.00;0.00;;;;;-145.09;100.00;59365.97;5111817;28;11364;-81
2024/02/23 01:43:11;;;;;;;;;0.00;0.00;;;;;-145.09;100.00;59365.97;5112255;28;8828;-83
2024/02/23 01:45:36;;;;;;;;;0.00;0.00;;;;;-145.09;100.00;59365.97;5113814;28;8780;-82
2024/02/23 01:48:02;;;;;;;;;0.00;0.00;;;;;-145.09;100.00;59365.97;5112492;28;8809;-82
2024/02/23 01:50:27;;;;;;;;;0.00;0.00;;;;;-145.09;100.00;59365.97;5113570;27;8802;-82
2024/02/23 01:52:54;;;;;;;;;0.00;0.00;;;;;-145.09;100.00;59365.97;5111296;28;30960;-82
2024/02/23 01:55:23;;;;;;;;;0.00;0.00;;;;;-145.09;100.00;59365.97;5111918;28;10879;-82
2024/02/23 01:57:48;;;;;;;;;0.00;0.00;;;;;-145.09;100.00;59365.97;5111612;28;35518;-81
2024/02/23 02:00:18;;;;;;;;;0.00;0.00;;;;;-145.09;100.00;59365.97;5112143;28;8837;-82
2024/02/23 02:02:44;;;;;;;;;0.00;0.00;;;;;-145.09;100.00;59365.97;5113507;27;8799;-82
2024/02/23 02:05:10;;;;;;;;;0.00;0.00;;;;;-145.09;100.00;59365.97;5112043;27;8892;-82
2024/02/23 02:07:35;;;;;;;;;0.00;0.00;;;;;-145.09;100.00;59365.97;5111825;28;8886;-82
2024/02/23 02:10:03;;;;;;;;;0.00;0.00;;;;;-145.09;100.00;59365.97;5112003;28;35397;-82
2024/02/23 02:12:29;;;;;;;;;0.00;0.00;;;;;-145.09;100.00;59365.97;5112055;28;8795;-82
2024/02/23 02:14:55;;;;;;;;;2.25;2.25;;;;;-145.09;100.00;59365.97;5112536;27;8771;-82
2024/02/23 02:17:21;;;;;;;;;0.00;0.00;;;;;-145.09;100.00;59365.97;5132559;27;8776;-82
2024/02/23 02:19:48;;;;;;;;;0.00;0.00;;;;;-145.09;100.00;59365.97;5132301;27;8935;-82
2024/02/23 02:22:13;;;;;;;;;0.00;0.00;;;;;-145.09;100.00;59365.97;5133701;27;8772;-82
2024/02/23 02:24:40;;;;;;;;;0.00;0.00;;;;;-145.09;100.00;59365.97;5132759;27;21204;-83
2024/02/23 02:27:06;;;;;;;;;0.00;0.00;;;;;-145.09;100.00;59365.97;5132691;27;10422;-83
2024/02/23 02:29:32;;;;;;;;;0.00;0.00;;;;;-145.09;100.00;59365.97;5133490;27;8823;-82
2024/02/23 02:31:57;;;;;;;;;0.00;0.00;;;;;-145.09;100.00;59365.97;5132297;27;8812;-82
2024/02/23 02:34:22;;;;;;;;;0.00;0.00;;;;;-145.09;100.00;59365.97;5132557;27;34517;-82
2024/02/23 02:36:48;;;;;;;;;0.00;0.00;;;;;-145.09;100.00;59365.97;5133513;27;10789;-81
2024/02/23 02:39:13;;;;;;;;;0.00;0.00;;;;;-145.09;100.00;59365.97;5131615;27;8927;-82
2024/02/23 02:41:38;;;;;;;;;0.00;0.00;;;;;-145.09;100.00;59365.97;5131288;27;31031;-82
2024/02/23 02:44:04;;;;;;;;;0.00;0.00;;;;;-145.09;100.00;59365.97;5132220;27;11446;-82
2024/02/23 02:46:29;;;;;;;;;0.00;0.00;;;;;-145.09;100.00;59365.97;5132352;27;37225;-83
2024/02/23 02:48:54;;;;;;;;;0.00;0.00;;;;;-145.09;100.00;59365.97;5113970;27;37349;-82
2024/02/23 02:51:20;;;;;;;;;0.00;0.00;;;;;-145.09;100.00;59365.97;5113058;27;11436;-82
2024/02/23 02:53:45;;;;;;;;;0.00;0.00;;;;;-145.09;100.00;59365.97;5112278;28;10346;-83
2024/02/23 02:56:11;;;;;;;;;0.00;0.00;;;;;-145.09;100.00;59365.97;5111385;28;8888;-83
2024/02/23 02:58:36;;;;;;;;;0.00;0.00;;;;;-145.09;100.00;59365.97;5111759;28;31965;-82
2024/02/23 03:01:01;;;;;;;;;0.00;0.00;;;;;-145.09;100.00;59365.97;5110260;28;29977;-82
2024/02/23 03:03:27;;;;;;;;;0.00;0.00;;;;;-145.09;100.00;59365.97;5112741;28;11448;-82
2024/02/23 03:05:52;;;;;;;;;12.00;12.00;;;;;-145.09;100.00;59365.97;5110192;28;33334;-82
2024/02/23 03:08:17;;;;;;;;;0.00;0.00;;;;;-145.09;100.00;59365.97;5109892;28;28242;-81
2024/02/23 03:10:43;;;;;;;;;0.00;0.00;;;;;-145.09;100.00;59365.97;5111528;27;33105;-83
2024/02/23 03:13:08;;;;;;;;;0.00;0.00;;;;;-145.09;100.00;59365.97;5109989;28;34326;-82
2024/02/23 03:15:33;;;;;;;;;0.00;0.00;;;;;-145.09;100.00;59365.97;5110694;28;18229;-82
2024/02/23 03:18:00;;;;;;;;;3.00;0.00;;;;;-145.09;100.00;59365.97;5111532;27;30759;-82
2024/02/23 03:20:26;;;;;;;;;0.00;0.00;;;;;-145.09;100.00;59365.97;5111082;28;11455;-83
2024/02/23 03:22:51;;;;;;;;;0.00;0.00;;;;;-145.09;100.00;59365.97;5109577;28;36451;-81
2024/02/23 03:25:16;;;;;;;;;0.00;0.00;;;;;-145.09;100.00;59365.97;5110133;28;26522;-82
2024/02/23 03:27:42;;;;;;;;;0.00;0.00;;;;;-145.09;100.00;59365.97;5114583;27;27767;-81
2024/02/23 03:30:10;;;;;;;;;0.00;0.00;;;;;-145.09;100.00;59365.97;5114760;27;36175;-81
2024/02/23 03:32:36;;;;;;;;;0.00;0.00;;;;;-145.09;100.00;59365.97;5115940;27;11490;-82
2024/02/23 03:58:34;;;;;;;;;0.00;0.00;;;;;-145.09;100.00;59365.97;5094996;28;8777;-83
2024/02/23 04:00:59;;;;;;;;;0.00;0.00;;;;;-145.09;100.00;59365.97;5093922;28;32633;-83
2024/02/23 04:03:24;;;;;;;;;0.00;0.00;;;;;-145.09;100.00;59365.97;5092727;28;33767;-82
2024/02/23 04:05:50;;;;;;;;;0.00;0.00;;;;;-145.09;100.00;59365.97;5093908;28;31488;-82
2024/02/23 04:08:16;;;;;;;;;0.00;0.00;;;;;-145.09;100.00;59365.97;5093363;28;12150;-83
2024/02/23 04:10:41;;;;;;;;;0.00;0.00;;;;;-145.09;100.00;59365.97;5110310;28;8822;-82
2024/02/23 04:13:06;;;;;;;;;0.00;0.00;;;;;-145.09;100.00;59365.97;5094788;28;9485;-82
2024/02/23 04:15:32;;;;;;;;;0.00;0.00;;;;;-145.09;100.00;59365.97;5113982;28;8807;-82
2024/02/23 04:17:57;;;;;;;;;0.00;0.00;;;;;-145.09;100.00;59365.97;5113072;28;35802;-82
2024/02/23 04:20:22;;;;;;;;;0.00;0.00;;;;;-145.09;100.00;59365.97;5112512;28;32189;-83
2024/02/23 04:22:48;;;;;;;;;0.00;0.00;;;;;-145.09;100.00;59365.97;5112794;28;31503;-83
2024/02/23 04:25:13;;;;;;;;;0.00;0.00;;;;;-145.09;100.00;59365.97;5114743;28;11455;-83
2024/02/23 04:27:38;;;;;;;;;0.00;0.00;;;;;-145.09;100.00;59365.97;5115307;27;9399;-82
2024/02/23 04:30:04;;;;;;;;;0.00;0.00;;;;;-145.09;100.00;59365.97;5114716;27;8829;-82
2024/02/23 04:32:30;;;;;;;;;0.00;0.00;;;;;-145.09;100.00;59365.97;5113813;28;8864;-82
2024/02/23 04:34:55;;;;;;;;;0.00;0.00;;;;;-145.09;100.00;59365.97;5114458;28;8864;-83
2024/02/23 04:37:21;;;;;;;;;0.00;0.00;;;;;-145.09;100.00;59365.97;5113370;28;8894;-82
2024/02/23 04:39:46;;;;;;;;;0.00;0.00;;;;;-145.09;100.00;59365.97;5112208;28;31822;-82
2024/02/23 04:42:11;;;;;;;;;0.00;0.00;;;;;-145.09;100.00;59365.97;5114556;28;11384;-81
2024/02/23 04:44:37;;;;;;;;;0.00;0.00;;;;;-145.09;100.00;59365.97;5114974;27;10855;-82
2024/02/23 04:47:02;;;;;;;;;0.00;0.00;;;;;-145.09;100.00;59365.97;5114250;27;32593;-83
2024/02/23 04:49:28;;;;;;;;;0.00;0.00;;;;;-145.09;100.00;59365.97;5113886;27;11388;-83
2024/02/23 04:51:53;;;;;;;;;0.00;0.00;;;;;-145.09;100.00;59365.97;5113526;28;8778;-82
2024/02/23 04:54:19;;;;;;;;;0.00;0.00;;;;;-145.09;100.00;59365.97;5112461;28;33256;-83
2024/02/23 04:56:44;;;;;;;;;0.00;0.00;;;;;-145.09;100.00;59365.97;5114638;27;11169;-82
2024/02/23 04:59:10;;;;;;;;;0.00;0.00;;;;;-145.09;100.00;59365.97;5113343;27;33098;-82
2024/02/23 05:01:38;;;;;;;;;0.00;0.00;;;;;-145.09;100.00;59365.97;5113114;28;34992;-82
2024/02/23 05:04:03;;;;;;;;;0.00;0.00;;;;;-145.09;100.00;59365.97;5112808;28;8798;-82
2024/02/23 05:06:29;;;;;;;;;0.00;0.00;;;;;-145.09;100.00;59365.97;5113591;28;27610;-82
2024/02/23 05:08:55;;;;;;;;;0.00;0.00;;;;;-145.09;100.00;59365.97;5114117;27;8889;-82
2024/02/23 05:11:20;;;;;;;;;0.00;0.00;;;;;-145.09;100.00;59365.97;5113203;28;8865;-82
2024/02/23 05:13:45;;;;;;;;;0.00;0.00;;;;;-145.09;100.00;59365.97;5112005;28;34553;-82
2024/02/23 05:16:13;;;;;;;;;0.00;0.00;;;;;-145.09;100.00;59365.97;5124522;27;26855;-82
2024/02/23 05:18:38;;;;;;;;;0.00;0.00;;;;;-145.09;100.00;59365.97;5133190;27;11403;-82
2024/02/23 05:21:04;;;;;;;;;0.00;0.00;;;;;-145.09;100.00;59365.97;5134511;27;8816;-83
2024/02/23 05:23:30;;;;;;;;;0.00;0.00;;;;;-145.09;100.00;59365.97;5134604;27;8776;-82
2024/02/23 05:25:55;;;;;;;;;0.00;0.00;;;;;-145.09;100.00;59365.97;5134222;27;14111;-83
2024/02/23 05:28:21;;;;;;;;;0.00;0.00;;;;;-145.09;100.00;59365.97;5133018;27;18177;-82
2024/02/23 05:30:46;;;;;;;;;0.00;0.00;;;;;-145.09;100.00;59365.97;5134323;27;11359;-82
2024/02/23 05:33:11;;;;;;;;;0.00;0.00;;;;;-145.09;100.00;59365.97;5134068;27;11145;-82
2024/02/23 05:35:37;;;;;;;;;0.00;0.00;;;;;-145.09;100.00;59365.97;5133523;27;10613;-83
2024/02/23 05:38:02;;;;;;;;;0.00;0.00;;;;;-145.09;100.00;59365.97;5133330;27;9586;-83
2024/02/23 05:40:27;;;;;;;;;0.00;0.00;;;;;-145.09;100.00;59365.97;5133267;27;8933;-83
2024/02/23 05:42:54;;;;;;;;;0.00;0.00;;;;;-145.09;100.00;59365.97;5133037;27;8800;-82
2024/02/23 05:45:19;;;;;;;;;0.00;0.00;;;;;-145.09;100.00;59365.97;5133286;27;8818;-82
2024/02/23 05:47:45;;;;;;;;;0.00;0.00;;;;;-145.09;100.00;59365.97;5134198;27;8789;-82
2024/02/23 05:50:10;;;;;;;;;0.00;0.00;;;;;-145.09;100.00;59365.97;5105487;28;8921;-82
2024/02/23 05:52:36;;;;;;;;;0.00;0.00;;;;;-145.09;100.00;59365.97;5113781;27;8837;-82
2024/02/23 05:55:03;;;;;;;;;0.00;0.00;;;;;-145.09;100.00;59365.97;5113545;27;9597;-82
2024/02/23 05:57:29;;;;;;;;;0.00;0.00;;;;;-145.09;100.00;59365.97;5113701;28;8793;-82
2024/02/23 05:59:55;;;;;;;;;0.00;0.00;;;;;-145.09;100.00;59365.97;5111949;28;8819;-83
2024/02/23 06:02:21;;;;;;;;;0.00;0.00;;;;;-145.09;100.00;59365.97;5111933;28;8787;-81
2024/02/23 06:04:46;;;;;;;;;0.00;0.00;;;;;-145.09;100.00;59365.97;5113345;28;8813;-82
2024/02/23 06:07:13;;;;;;;;;0.00;0.00;;;;;-145.09;100.00;59365.97;5112162;28;8830;-82
2024/02/23 06:09:38;;;;;;;;;0.00;0.00;;;;;-145.09;100.00;59365.97;5111964;28;9933;-82
2024/02/23 06:12:04;;;;;;;;;0.00;0.00;;;;;-145.09;100.00;59365.97;5112099;27;8840;-82
2024/02/23 06:14:30;;;;;;;;;0.00;0.00;;;;;-145.09;100.00;59365.97;5112963;28;8775;-81
2024/02/23 06:16:56;;;;;;;;;0.00;0.00;;;;;-145.09;100.00;59365.97;5111062;27;35304;-82
2024/02/23 06:19:21;;;;;;;;;0.00;0.00;;;;;-145.09;100.00;59365.97;5111570;28;11452;-81
2024/02/23 06:21:50;;;;;;;;;0.00;0.00;;;;;-145.09;100.00;59365.97;5112365;27;33587;-82
2024/02/23 06:24:16;;;;;;;;;0.00;0.00;;;;;-145.09;100.00;59365.97;5113110;27;8783;-82
2024/02/23 06:26:41;;;;;;;;;0.00;0.00;;;;;-145.09;100.00;59365.97;5111752;28;8818;-82
2024/02/23 06:29:08;;;;;;;;;0.00;0.00;;;;;-145.09;100.00;59365.97;5110788;28;31118;-82
2024/02/23 06:31:34;;;;;;;;;0.00;0.00;;;;;-145.09;100.00;59365.97;5112799;27;11376;-82
2024/02/23 06:34:00;;;;;;;;;0.00;0.00;;;;;-145.09;100.00;59365.97;5111835;28;8787;-82
2024/02/23 06:36:25;;;;;;;;;0.00;0.00;;;;;-145.09;100.00;59365.97;5111665;27;8899;-83
2024/02/23 06:38:50;;;;;;;;;0.00;0.00;;;;;-145.09;100.00;59365.97;5110584;28;38100;-83
2024/02/23 06:41:16;;;;;;;;;0.00;0.00;;;;;-145.09;100.00;59365.97;5112357;27;15967;-82
2024/02/23 06:43:41;;;;;;;;;0.00;0.00;;;;;-145.09;100.00;59365.97;5112482;27;10917;-82
2024/02/23 06:46:08;;;;;;;;;0.00;0.00;;;;;-145.09;100.00;59365.97;5110859;28;24781;-82
2024/02/23 06:48:34;;;;;;;;;0.00;0.00;;;;;-145.09;100.00;59365.97;5111476;28;11464;-82
2024/02/23 06:50:59;;;;;;;;;0.00;0.00;;;;;-145.09;100.00;59365.97;5112655;27;8905;-82
2024/02/23 06:53:25;;;;;;;;;0.00;0.00;;;;;-145.09;100.00;59365.97;5112703;28;8806;-82
2024/02/23 06:55:50;;;;;;;;;0.00;0.00;;;;;-145.09;100.00;59365.97;5112805;27;8826;-83
2024/02/23 06:58:16;;;;;;;;;0.00;0.00;;;;;-145.09;100.00;59365.97;5111600;28;24168;-83
2024/02/23 07:00:42;;;;;;;;;0.00;0.00;;;;;-145.09;100.00;59365.97;5110948;28;10706;-82
2024/02/23 07:03:07;;;;;;;;;0.00;0.00;;;;;-145.09;100.00;59365.97;5111336;28;8913;-82
2024/02/23 07:05:33;;;;;;;;;0.00;0.00;;;;;-145.09;100.00;59365.97;5111108;28;13363;-82
2024/02/23 07:07:58;;;;;;;;;0.00;0.00;;;;;-145.09;100.00;59365.97;5112669;28;11398;-82
2024/02/23 07:10:25;;;;;;;;;0.00;0.00;;;;;-145.09;100.00;59365.97;5110200;28;36975;-82
2024/02/23 07:12:53;;;;;;;;;0.00;0.00;;;;;-145.09;100.00;59365.97;5110851;28;10371;-83
2024/02/23 07:15:21;;;;;;;;;0.00;0.00;;;;;-145.09;100.00;59365.97;5114626;27;8801;-83
2024/02/23 07:17:47;;;;;;;;;0.00;0.00;;;;;-145.09;100.00;59365.97;5132065;27;8776;-83
2024/02/23 07:20:13;;;;;;;;;0.00;0.00;;;;;-145.09;100.00;59365.97;5132799;27;9530;-83
2024/02/23 07:22:38;;;;;;;;;0.00;0.00;;;;;-145.09;100.00;59365.97;5132003;27;8769;-82
2024/02/23 07:25:05;;;;;;;;;0.00;0.00;;;;;-145.09;100.00;59365.97;5131852;27;32375;-82
2024/02/23 07:27:31;;;;;;;;;0.00;0.00;;;;;-145.09;100.00;59365.97;5132516;27;10037;-82
2024/02/23 07:29:56;;;;;;;;;0.00;0.00;;;;;-145.09;100.00;59365.97;5132903;27;8788;-82
2024/02/23 07:32:21;;;;;;;;;0.00;0.00;;;;;-145.09;100.00;59365.97;5132883;27;8780;-82
2024/02/23 07:34:47;;;;;;;;;0.00;0.00;;;;;-145.09;100.00;59365.97;5131029;27;32589;-82
2024/02/23 07:37:13;;;;;;;;;0.00;0.00;;;;;-145.09;100.00;59365.97;5113402;27;35621;-83
2024/02/23 07:39:38;;;;;;;;;0.00;0.00;;;;;-145.09;100.00;59365.97;5132552;27;11450;-82
2024/02/23 07:42:05;;;;;;;;;0.00;0.00;;;;;-145.09;100.00;59365.97;5130305;27;27748;-83
2024/02/23 07:44:31;;;;;;;;;0.00;0.00;;;;;-145.09;100.00;59365.97;5114685;27;12215;-83
2024/02/23 07:46:58;;;;;;;;;0.00;0.00;;;;;-145.09;100.00;59365.97;5132817;27;8888;-83
2024/02/23 07:49:23;;;;;;;;;0.00;0.00;;;;;-145.09;100.00;59365.97;5129111;27;8769;-82
2024/02/23 07:51:49;;;;;;;;;0.00;0.00;;;;;-145.09;100.00;59365.97;5110893;28;8822;-83
2024/02/23 07:54:14;;;;;;;;;0.00;0.00;;;;;-145.09;100.00;59365.97;5111899;28;9203;-83
2024/02/23 07:56:39;;;;;;;;;0.00;0.00;;;;;-145.09;100.00;59365.97;5110482;28;10316;-83
2024/02/23 07:59:05;;;;;;;;;0.00;0.00;;;;;-145.09;100.00;59365.97;5109769;28;29166;-83
2024/02/23 08:01:30;;;;;;;;;0.00;0.00;;;;;-145.09;100.00;59365.97;5110945;27;32973;-82
2024/02/23 08:03:56;;;;;;;;;0.00;0.00;;;;;-145.09;100.00;59365.97;5111659;28;11421;-82
2024/02/23 08:06:22;;;;;;;;;0.00;0.00;;;;;-145.09;100.00;59365.97;5111758;27;8866;-82
2024/02/23 08:08:47;;;;;;;;;0.00;0.00;;;;;-145.09;100.00;59365.97;5110841;28;8775;-82
2024/02/23 08:11:13;;;;;;;;;0.00;0.00;;;;;-145.09;100.00;59365.97;5111158;27;11722;-83
2024/02/23 08:13:39;;;;;;;;;0.00;0.00;;;;;-145.09;100.00;59365.97;5112167;28;10410;-83
2024/02/23 08:16:05;;;;;;;;;0.00;0.00;;;;;-145.09;100.00;59365.97;5113935;27;8812;-82
2024/02/23 08:18:31;;;;;;;;;0.00;0.00;;;;;-145.09;100.00;59365.97;5115215;27;8926;-83
2024/02/23 08:20:56;;;;;;;;;0.00;0.00;;;;;-145.09;100.00;59365.97;5113954;28;8792;-83
2024/02/23 08:23:22;;;;;;;;;0.00;0.00;;;;;-145.09;100.00;59365.97;5115177;27;8808;-83
2024/02/23 08:25:48;;;;;;;;;0.00;0.00;;;;;-145.09;100.00;59365.97;5096804;28;8808;-83
2024/02/23 08:28:13;;;;;;;;;0.00;0.00;;;;;-145.09;100.00;59365.97;5113079;28;28167;-82
2024/02/23 08:30:39;;;;;;;;;0.00;0.00;;;;;-145.09;100.00;59365.97;5114909;28;8807;-83
2024/02/23 08:33:05;;;;;;;;;0.00;0.00;;;;;-145.09;100.00;59365.97;5114179;27;36139;-84
2024/02/23 08:35:30;;;;;;;;;0.00;0.00;;;;;-145.09;100.00;59365.97;5113529;28;11412;-83
2024/02/23 08:37:56;;;;;;;;;0.00;0.00;;;;;-145.09;100.00;59365.97;5113769;28;8808;-84
2024/02/23 08:40:21;;;;;;;;;0.00;0.00;;;;;-145.09;100.00;59365.97;5112353;28;27066;-83
2024/02/23 08:42:47;;;;;;;;;0.00;0.00;;;;;-145.09;100.00;59365.97;5112610;28;37299;-83
2024/02/23 08:45:13;;;;;;;;;0.00;0.00;;;;;-145.09;100.00;59365.97;5096421;28;11332;-82
2024/02/23 08:47:38;;;;;;;;;0.00;0.00;;;;;-145.09;100.00;59365.97;5114986;27;8769;-82
2024/02/23 08:50:04;;;;;;;;;0.00;0.00;;;;;-145.09;100.00;59365.97;5114728;28;8787;-85
2024/02/23 08:52:30;;;;;;;;;0.00;0.00;;;;;-145.09;100.00;59365.97;5114583;27;8810;-83
2024/02/23 08:54:55;;;;;;;;;0.00;0.00;;;;;-145.09;100.00;59365.97;5129721;27;23040;-83
2024/02/23 08:57:22;;;;;;;;;0.00;0.00;;;;;-145.09;100.00;59365.97;5096312;28;8831;-83
2024/02/23 08:59:48;;;;;;;;;0.00;0.00;;;;;-145.09;100.00;59365.97;5114448;27;8810;-83
2024/02/23 09:02:13;;;;;;;;;0.00;0.00;;;;;-145.09;100.00;59365.97;5114385;27;8799;-82
2024/02/23 09:04:39;;;;;;;;;0.00;0.00;;;;;-145.09;100.00;59365.97;5114474;27;8783;-83
2024/02/23 09:07:05;;;;;;;;;0.25;0.25;;;;;-145.09;100.00;59365.97;5114521;27;8907;-83
2024/02/23 09:09:30;;;;;;;;;0.00;0.00;;;;;-145.09;100.00;59365.97;5112713;28;8787;-82
2024/02/23 09:11:55;;;;;;;;;0.00;0.00;;;;;-145.09;100.00;59365.97;5113197;28;8887;-82
2024/02/23 09:14:21;;;;;;;;;0.00;0.00;;;;;-145.09;100.00;59365.97;5114391;27;8779;-83
2024/02/23 09:16:47;;;;;;;;;0.00;0.00;;;;;-145.09;100.00;59365.97;5112946;28;8818;-82
2024/02/23 09:19:12;;;;;;;;;0.00;0.00;;;;;-145.09;100.00;59365.97;5114133;27;9546;-83
2024/02/23 09:21:38;;;;;;;;;0.00;0.00;;;;;-145.09;100.00;59365.97;5113004;28;8861;-82
2024/02/23 09:24:04;;;;;;;;;0.00;0.00;;;;;-145.09;100.00;59365.97;5111721;28;29689;-82
2024/02/23 09:26:29;;;;;;;;;0.00;0.00;;;;;-145.09;100.00;59365.97;5131386;27;9621;-82
2024/02/23 09:28:55;;;;;;;;;0.00;0.00;;;;;-145.09;100.00;59365.97;5115128;27;37050;-83
2024/02/23 09:31:20;;;;;;;;;0.00;0.00;;;;;-145.09;100.00;59365.97;5098208;27;33988;-82
2024/02/23 09:33:46;;;;;;;;;0.00;0.00;;;;;-145.09;100.00;59365.97;5134522;27;11368;-83
2024/02/23 09:36:15;;;;;;;;;0.00;0.00;;;;;-145.09;100.00;59365.97;5134498;27;8775;-82
2024/02/23 09:38:40;;;;;;;;;0.00;0.00;;;;;-145.09;100.00;59365.97;5115869;27;8859;-82
2024/02/23 09:41:21;;;;;;;;;0.00;0.00;;;;;-145.09;100.00;59365.97;5134376;27;8814;-82
2024/02/23 09:43:48;;;;;;;;;0.00;0.00;;;;;-145.09;100.00;59365.97;5115842;27;8783;-83
2024/02/23 09:46:14;;;;;;;;;0.00;0.00;;;;;-145.09;100.00;59365.97;5099080;27;8802;-83
2024/02/23 09:48:42;;;;;;;;;0.00;0.00;;;;;-145.09;100.00;59365.97;5134340;27;8797;-83
2024/02/23 09:51:07;;;;;;;;;0.00;0.00;;;;;-145.09;100.00;59365.97;5098849;28;8804;-83
2024/02/23 09:53:37;;;;;;;;;0.00;0.00;;;;;-145.09;100.00;59365.97;5094874;28;8804;-83
2024/02/23 09:56:03;;;;;;;;;0.00;0.00;;;;;-145.09;100.00;59365.97;5095518;28;8772;-83
2024/02/23 09:58:30;;;;;;;;;0.00;0.00;;;;;-145.09;100.00;59365.97;5113574;28;8885;-82
2024/02/23 10:00:58;;;;;;;;;0.00;0.00;;;;;-145.09;100.00;59365.97;5113387;28;8816;-84
2024/02/23 10:03:26;;;;;;;;;0.00;0.00;;;;;-145.09;100.00;59365.97;5095177;28;8780;-83
2024/02/23 10:05:51;;;;;;;;;0.00;0.00;;;;;-145.09;100.00;59365.97;5095251;28;8869;-83
2024/02/23 10:08:16;;;;;;;;;0.00;0.00;;;;;-145.09;100.00;59365.97;5076999;28;36571;-84
2024/02/23 10:10:46;;;;;;;;;0.00;0.00;;;;;-145.09;100.00;59365.97;5078017;28;17524;-83
2024/02/23 10:13:11;;;;;;;;;0.00;0.00;;;;;-145.09;100.00;59365.97;5113402;28;10727;-83
2024/02/23 10:15:37;;;;;;;;;0.00;0.00;;;;;-145.09;100.00;59365.97;5093966;28;36180;-82
2024/02/23 10:18:02;;;;;;;;;0.00;0.00;;;;;-145.09;100.00;59365.97;5095054;28;12152;-83
2024/02/23 10:20:28;;;;;;;;;0.00;0.00;;;;;-145.09;100.00;59365.97;5077805;28;8829;-83
2024/02/23 10:22:54;;;;;;;;;0.00;0.00;;;;;-145.09;100.00;59365.97;5112587;28;14768;-84
2024/02/23 10:25:19;;;;;;;;;0.00;0.00;;;;;-145.09;100.00;59365.97;5112981;28;10417;-84
2024/02/23 10:27:45;;;;;;;;;0.00;0.00;;;;;-145.09;100.00;59365.97;5113298;28;8800;-83
2024/02/23 10:30:14;;;;;;;;;0.00;0.00;;;;;-145.09;100.00;59365.97;5112071;28;36051;-83
2024/02/23 10:32:41;;;;;;;;;0.00;0.00;;;;;-145.09;100.00;59365.97;5112918;28;11423;-83
2024/02/23 10:35:10;;;;;;;;;0.00;0.00;;;;;-145.09;100.00;59365.97;5112907;28;8793;-83
2024/02/23 10:37:36;;;;;;;;;0.00;0.00;;;;;-145.09;100.00;59365.97;5111948;28;8879;-83
2024/02/23 10:40:04;;;;;;;;;0.00;0.00;;;;;-145.09;100.00;59365.97;5111712;28;8816;-84
2024/02/23 10:42:33;;;;;;;;;0.00;0.00;;;;;-145.09;100.00;59365.97;5112747;28;8781;-83
2024/02/23 10:45:01;;;;;;;;;0.00;0.00;;;;;-145.09;100.00;59365.97;5094664;28;8789;-84
2024/02/23 10:47:26;;;;;;;;;1.00;1.00;;;;;-145.09;100.00;59365.97;5077988;28;8783;-83
2024/02/23 10:49:52;;;;;;;;;0.00;0.00;;;;;-145.09;100.00;59365.97;5088545;28;8807;-83
2024/02/23 10:52:18;;;;;;;;;0.00;0.00;;;;;-145.09;100.00;59365.97;5073326;28;27811;-83
2024/02/23 10:54:46;;;;;;;;;0.00;0.00;;;;;-145.09;100.00;59365.97;5073517;28;31875;-84
2024/02/23 10:57:13;;;;;;;;;0.00;0.00;;;;;-145.09;100.00;59365.97;5092481;28;8794;-83
2024/02/23 10:59:39;;;;;;;;;0.00;0.00;;;;;-145.09;100.00;59365.97;5073911;28;9617;-83
2024/02/23 11:02:05;;;;;;;;;0.00;0.00;;;;;-145.09;100.00;59365.97;5092073;28;8795;-82
2024/02/23 11:04:31;;;;;;;;;0.00;0.00;;;;;-145.09;100.00;59365.97;5072980;28;33909;-83
2024/02/23 11:07:04;;;;;;;;;0.00;0.00;;;;;-145.09;100.00;59365.97;5073997;28;8774;-82
2024/02/23 11:09:31;;;;;;;;;0.00;0.00;;;;;-145.09;100.00;59365.97;5074954;28;8794;-83
2024/02/23 11:11:58;;;;;;;;;0.00;0.00;;;;;-145.09;100.00;59365.97;5092209;28;8778;-82
2024/02/23 11:14:32;;;;;;;;;0.00;0.00;;;;;-145.09;100.00;59365.97;5073728;28;9601;-83
2024/02/23 11:16:57;;;;;;;;;0.00;0.00;;;;;-145.09;100.00;59365.97;5091793;28;8786;-82
2024/02/23 11:19:32;;;;;;;;;0.00;0.00;;;;;-145.09;100.00;59365.97;5073477;28;8782;-82
2024/02/23 11:21:58;;;;;;;;;0.00;0.00;;;;;-145.09;100.00;59365.97;5073936;28;8786;-83
2024/02/23 11:24:26;;;;;;;;;0.00;0.00;;;;;-145.09;100.00;59365.97;5073629;28;8891;-83
2024/02/23 11:26:56;;;;;;;;;0.00;0.00;;;;;-145.09;100.00;59365.97;5073783;28;8818;-84
2024/02/23 11:29:21;;;;;;;;;0.00;0.00;;;;;-145.09;100.00;59365.97;5073737;28;8848;-82
2024/02/23 11:31:47;;;;;;;;;0.00;0.00;;;;;-145.09;100.00;59365.97;5056759;28;8815;-83